Time;durP1;ratioP1;P1;durP2;ratioP2;P2;SDS_P1;SDS_P2;PMS_P1;PMS_P2;Temp;Humidity;BMP_temperature;BMP_pressure;BME280_temperature;BME280_humidity;BME280_pressure;Samples;Min_cycle;Max_cycle;Signal;HPM_P1;HPM_P2
2021/03/30 00:01:07;;;;;;;;;;;;;;;;;;5068106;28;1898;-63
2021/03/30 00:03:33;;;;;;;;;;;;;;;;;;5067926;28;824;-63
2021/03/30 00:05:58;;;;;;;;;;;;;;;;;;5067616;28;949;-63
2021/03/30 00:08:24;;;;;;;;;;;;;;;;;;5068344;28;855;-62
2021/03/30 00:10:49;;;;;;;;;;;;;;;;;;5054614;28;858;-62
2021/03/30 00:13:14;;;;;;;;;;;;;;;;;;5047881;28;1223;-63
2021/03/30 00:15:40;;;;;;;;;;;;;;;;;;5048364;28;914;-62
2021/03/30 00:18:08;;;;;;;;;;;;;;;;;;5034810;28;1007;-63
2021/03/30 00:20:34;;;;;;;;;;;;;;;;;;5027859;28;807;-62
2021/03/30 00:22:59;;;;;;;;;;;;;;;;;;5027496;28;2022;-63
2021/03/30 00:25:25;;;;;;;;;;;;;;;;;;5027887;28;839;-63
2021/03/30 00:27:50;;;;;;;;;;;;;;;;;;5028471;28;972;-62
2021/03/30 00:30:16;;;;;;;;;;;;;;;;;;5027489;28;875;-62
2021/03/30 00:32:41;;;;;;;;;;;;;;;;;;5027672;28;911;-63
2021/03/30 00:35:07;;;;;;;;;;;;;;;;;;5027989;28;804;-62
2021/03/30 00:37:32;;;;;;;;;;;;;;;;;;5027738;28;903;-62
2021/03/30 00:39:58;;;;;;;;;;;;;;;;;;5027652;28;882;-63
2021/03/30 00:42:26;;;;;;;;;;;;;;;;;;5027678;28;1980;-63
2021/03/30 00:44:52;;;;;;;;;;;;;;;;;;5028084;28;959;-63
2021/03/30 00:47:18;;;;;;;;;;;;;;;;;;5028240;28;842;-62
2021/03/30 00:49:45;;;;;;;;;;;;;;;;;;5027606;28;839;-63
2021/03/30 00:52:10;;;;;;;;;;;;;;;;;;5027348;28;757;-63
2021/03/30 00:54:36;;;;;;;;;;;;;;;;;;5058020;28;1406;-63
2021/03/30 00:57:03;;;;;;;;;;;;;;;;;;5047102;28;788;-63
2021/03/30 00:59:28;;;;;;;;;;;;;;;;;;5046885;28;907;-62
2021/03/30 01:01:54;;;;;;;;;;;;;;;;;;5047013;28;1898;-63
2021/03/30 01:04:19;;;;;;;;;;;;;;;;;;5047581;28;870;-63
2021/03/30 01:06:46;;;;;;;;;;;;;;;;;;5045676;28;843;-64
2021/03/30 01:09:14;;;;;;;;;;;;;;;;;;5047141;28;871;-64
2021/03/30 01:11:39;;;;;;;;;;;;;;;;;;5046924;28;914;-63
2021/03/30 01:14:16;;;;;;;;;;;;;;;;;;5046879;28;928;-63
2021/03/30 01:17:00;;;;;;;;;;;;;;;;;;5047076;28;902;-63
2021/03/30 01:19:46;;;;;;;;;;;;;;;;;;5046301;28;923;-64
2021/03/30 01:22:14;;;;;;;;;;;;;;;;;;5046448;28;1914;-63
2021/03/30 01:24:46;;;;;;;;;;;;;;;;;;5047214;28;842;-63
2021/03/30 01:27:14;;;;;;;;;;;;;;;;;;5046963;28;897;-62
2021/03/30 01:29:42;;;;;;;;;;;;;;;;;;5046951;28;855;-62
2021/03/30 01:32:07;;;;;;;;;;;;;;;;;;5047138;28;820;-62
2021/03/30 01:34:33;;;;;;;;;;;;;;;;;;5046768;28;851;-61
2021/03/30 01:36:59;;;;;;;;;;;;;;;;;;5046911;28;890;-62
2021/03/30 01:39:26;;;;;;;;;;;;;;;;;;5046929;28;966;-62
2021/03/30 01:41:52;;;;;;;;;;;;;;;;;;5046995;28;1894;-63
2021/03/30 01:44:18;;;;;;;;;;;;;;;;;;5047913;28;886;-62
2021/03/30 01:46:45;;;;;;;;;;;;;;;;;;5046830;28;823;-62
2021/03/30 01:49:11;;;;;;;;;;;;;;;;;;5047118;28;985;-62
2021/03/30 01:51:38;;;;;;;;;;;;;;;;;;5046707;28;807;-62
2021/03/30 01:54:05;;;;;;;;;;;;;;;;;;5058685;28;1004;-63
2021/03/30 01:56:33;;;;;;;;;;;;;;;;;;5064442;28;1165;-62
2021/03/30 01:59:00;;;;;;;;;;;;;;;;;;5025944;28;1031;-63
2021/03/30 02:01:26;;;;;;;;;;;;;;;;;;5027051;28;1918;-62
2021/03/30 02:03:51;;;;;;;;;;;;;;;;;;5027305;28;1066;-63
2021/03/30 02:06:18;;;;;;;;;;;;;;;;;;5028329;28;735;-62
2021/03/30 02:08:44;;;;;;;;;;;;;;;;;;5026934;28;899;-62
2021/03/30 02:11:09;;;;;;;;;;;;;;;;;;5029708;28;827;-62
2021/03/30 02:16:14;;;;;;;;;;;;;;;;;;5029988;28;746;-63
2021/03/30 02:18:44;;;;;;;;;;;;;;;;;;5030323;28;894;-62
2021/03/30 02:21:12;;;;;;;;;;;;;;;;;;5030712;28;891;-62
2021/03/30 02:23:39;;;;;;;;;;;;;;;;;;5030134;28;903;-63
2021/03/30 02:26:07;;;;;;;;;;;;;;;;;;5029866;28;911;-62
2021/03/30 02:28:45;;;;;;;;;;;;;;;;;;5030108;28;828;-62
2021/03/30 02:31:14;;;;;;;;;;;;;;;;;;5030656;28;851;-62
2021/03/30 02:33:41;;;;;;;;;;;;;;;;;;5030066;28;863;-63
2021/03/30 02:36:06;;;;;;;;;;;;;;;;;;5029916;28;894;-62
2021/03/30 02:38:33;;;;;;;;;;;;;;;;;;5028988;28;831;-62
2021/03/30 02:40:59;;;;;;;;;;;;;;;;;;5029896;28;855;-62
2021/03/30 02:43:25;;;;;;;;;;;;;;;;;;5029335;28;1971;-62
2021/03/30 02:45:51;;;;;;;;;;;;;;;;;;5030127;28;847;-63
2021/03/30 02:48:18;;;;;;;;;;;;;;;;;;5030745;28;824;-63
2021/03/30 02:50:43;;;;;;;;;;;;;;;;;;5029492;28;855;-62
2021/03/30 02:53:09;;;;;;;;;;;;;;;;;;5036340;28;1182;-62
2021/03/30 02:55:36;;;;;;;;;;;;;;;;;;5069789;28;895;-62
2021/03/30 02:58:03;;;;;;;;;;;;;;;;;;5069321;28;839;-62
2021/03/30 03:00:29;;;;;;;;;;;;;;;;;;5069002;28;803;-63
2021/03/30 03:02:59;;;;;;;;;;;;;;;;;;5068998;28;1914;-63
2021/03/30 03:05:24;;;;;;;;;;;;;;;;;;5069229;28;827;-62
2021/03/30 03:07:50;;;;;;;;;;;;;;;;;;5070036;28;819;-62
2021/03/30 03:10:16;;;;;;;;;;;;;;;;;;5069445;28;890;-62
2021/03/30 03:12:43;;;;;;;;;;;;;;;;;;5069378;28;815;-63
2021/03/30 03:15:11;;;;;;;;;;;;;;;;;;5069053;28;902;-63
2021/03/30 03:17:37;;;;;;;;;;;;;;;;;;5068473;28;843;-62
2021/03/30 03:20:04;;;;;;;;;;;;;;;;;;5068834;28;903;-63
2021/03/30 03:22:29;;;;;;;;;;;;;;;;;;5068024;28;1977;-63
2021/03/30 03:24:55;;;;;;;;;;;;;;;;;;5068693;28;819;-63
2021/03/30 03:27:20;;;;;;;;;;;;;;;;;;5069780;28;886;-63
2021/03/30 03:29:46;;;;;;;;;;;;;;;;;;5069209;28;928;-62
2021/03/30 03:32:11;;;;;;;;;;;;;;;;;;5068938;28;823;-62
2021/03/30 03:34:37;;;;;;;;;;;;;;;;;;5068724;28;1053;-63
2021/03/30 03:37:03;;;;;;;;;;;;;;;;;;5068822;28;910;-63
2021/03/30 03:39:28;;;;;;;;;;;;;;;;;;5068016;28;858;-63
2021/03/30 03:41:54;;;;;;;;;;;;;;;;;;5068447;28;2032;-63
2021/03/30 03:44:19;;;;;;;;;;;;;;;;;;5069624;28;846;-62
2021/03/30 03:46:47;;;;;;;;;;;;;;;;;;5067454;28;1086;-63
2021/03/30 03:49:13;;;;;;;;;;;;;;;;;;5051124;28;1157;-64
2021/03/30 03:51:54;;;;;;;;;;;;;;;;;;5048232;28;882;-63
2021/03/30 03:54:22;;;;;;;;;;;;;;;;;;5063270;28;1169;-63
2021/03/30 03:56:48;;;;;;;;;;;;;;;;;;5068848;28;889;-63
2021/03/30 03:59:18;;;;;;;;;;;;;;;;;;5067681;28;909;-63
2021/03/30 04:01:58;;;;;;;;;;;;;;;;;;5068539;28;1898;-63
2021/03/30 04:04:39;;;;;;;;;;;;;;;;;;5067939;28;807;-63
2021/03/30 04:07:05;;;;;;;;;;;;;;;;;;5068342;28;867;-63
2021/03/30 04:09:32;;;;;;;;;;;;;;;;;;5067766;28;898;-63
2021/03/30 04:11:59;;;;;;;;;;;;;;;;;;5068252;28;839;-63
2021/03/30 04:14:25;;;;;;;;;;;;;;;;;;5067865;28;951;-63
2021/03/30 04:16:50;;;;;;;;;;;;;;;;;;5068771;28;806;-63
2021/03/30 04:19:16;;;;;;;;;;;;;;;;;;5067920;28;839;-63
2021/03/30 04:21:41;;;;;;;;;;;;;;;;;;5067530;28;1882;-63
2021/03/30 04:24:08;;;;;;;;;;;;;;;;;;5067802;28;910;-63
2021/03/30 04:26:34;;;;;;;;;;;;;;;;;;5067815;28;893;-63
2021/03/30 04:29:00;;;;;;;;;;;;;;;;;;5067780;28;886;-63
2021/03/30 04:31:25;;;;;;;;;;;;;;;;;;5067691;28;823;-63
2021/03/30 04:33:51;;;;;;;;;;;;;;;;;;5068182;28;894;-63
2021/03/30 04:36:16;;;;;;;;;;;;;;;;;;5068207;28;1174;-64
2021/03/30 04:38:42;;;;;;;;;;;;;;;;;;5067295;28;910;-64
2021/03/30 04:41:07;;;;;;;;;;;;;;;;;;5067412;28;890;-63
2021/03/30 04:43:33;;;;;;;;;;;;;;;;;;5067680;28;1894;-64
2021/03/30 04:45:59;;;;;;;;;;;;;;;;;;5067233;28;807;-64
2021/03/30 04:48:24;;;;;;;;;;;;;;;;;;5067267;28;894;-63
2021/03/30 04:50:49;;;;;;;;;;;;;;;;;;5068519;28;842;-63
2021/03/30 04:53:15;;;;;;;;;;;;;;;;;;5062550;28;1086;-63
2021/03/30 04:55:40;;;;;;;;;;;;;;;;;;5047230;28;827;-62
2021/03/30 04:58:06;;;;;;;;;;;;;;;;;;5049441;28;1083;-62
2021/03/30 05:00:31;;;;;;;;;;;;;;;;;;5061901;28;1136;-63
2021/03/30 05:02:56;;;;;;;;;;;;;;;;;;5060843;28;1968;-62
2021/03/30 05:05:22;;;;;;;;;;;;;;;;;;5067221;28;826;-63
2021/03/30 05:07:48;;;;;;;;;;;;;;;;;;5067776;28;843;-62
2021/03/30 05:10:13;;;;;;;;;;;;;;;;;;5066505;28;839;-62
2021/03/30 05:12:39;;;;;;;;;;;;;;;;;;5066894;28;815;-62
2021/03/30 05:15:05;;;;;;;;;;;;;;;;;;5066666;28;895;-62
2021/03/30 05:17:30;;;;;;;;;;;;;;;;;;5067417;28;835;-62
2021/03/30 05:19:56;;;;;;;;;;;;;;;;;;5066685;28;879;-62
2021/03/30 05:22:21;;;;;;;;;;;;;;;;;;5067289;28;1897;-62
2021/03/30 05:24:47;;;;;;;;;;;;;;;;;;5067286;28;834;-62
2021/03/30 05:27:12;;;;;;;;;;;;;;;;;;5059709;28;1605;-62
2021/03/30 05:29:43;;;;;;;;;;;;;;;;;;5035466;28;854;-62
2021/03/30 05:32:09;;;;;;;;;;;;;;;;;;5046297;28;850;-62
2021/03/30 05:34:35;;;;;;;;;;;;;;;;;;5046608;28;938;-62
2021/03/30 05:37:00;;;;;;;;;;;;;;;;;;5046631;28;1057;-62
2021/03/30 05:39:25;;;;;;;;;;;;;;;;;;5048404;28;1041;-62
2021/03/30 05:41:51;;;;;;;;;;;;;;;;;;5047886;28;2005;-62
2021/03/30 05:44:16;;;;;;;;;;;;;;;;;;5046108;28;812;-62
2021/03/30 05:46:44;;;;;;;;;;;;;;;;;;5050474;28;862;-62
2021/03/30 05:49:09;;;;;;;;;;;;;;;;;;5052565;28;1158;-61
2021/03/30 05:51:37;;;;;;;;;;;;;;;;;;5050786;28;815;-65
2021/03/30 05:54:03;;;;;;;;;;;;;;;;;;5062095;28;1165;-61
2021/03/30 05:56:29;;;;;;;;;;;;;;;;;;5070611;28;918;-62
2021/03/30 05:58:57;;;;;;;;;;;;;;;;;;5070543;28;775;-61
2021/03/30 06:01:24;;;;;;;;;;;;;;;;;;5070290;28;1906;-63
2021/03/30 06:03:52;;;;;;;;;;;;;;;;;;5070528;28;839;-61
2021/03/30 06:06:17;;;;;;;;;;;;;;;;;;5070979;28;898;-61
2021/03/30 06:08:43;;;;;;;;;;;;;;;;;;5069887;28;940;-61
2021/03/30 06:11:10;;;;;;;;;;;;;;;;;;5069854;28;807;-61
2021/03/30 06:13:59;;;;;;;;;;;;;;;;;;5069720;28;827;-62
2021/03/30 06:16:24;;;;;;;;;;;;;;;;;;5067135;28;1303;-62
2021/03/30 06:19:20;;;;;;;;;;;;;;;;;;5067707;28;1317;-62
2021/03/30 06:21:46;;;;;;;;;;;;;;;;;;5063322;28;1970;-61
2021/03/30 06:24:20;;;;;;;;;;;;;;;;;;5068618;28;1165;-61
2021/03/30 06:26:46;;;;;;;;;;;;;;;;;;5069196;28;803;-62
2021/03/30 06:29:24;;;;;;;;;;;;;;;;;;5067302;28;1193;-62
2021/03/30 06:31:50;;;;;;;;;;;;;;;;;;5052217;28;1161;-62
2021/03/30 06:34:23;;;;;;;;;;;;;;;;;;5056991;28;1228;-62
2021/03/30 06:36:49;;;;;;;;;;;;;;;;;;5070372;28;920;-62
2021/03/30 06:39:14;;;;;;;;;;;;;;;;;;5069860;28;890;-62
2021/03/30 06:41:46;;;;;;;;;;;;;;;;;;5063278;28;1997;-62
2021/03/30 06:44:27;;;;;;;;;;;;;;;;;;5067911;28;842;-62
2021/03/30 06:47:06;;;;;;;;;;;;;;;;;;5069003;28;822;-62
2021/03/30 06:49:35;;;;;;;;;;;;;;;;;;5069802;28;875;-63
2021/03/30 06:52:11;;;;;;;;;;;;;;;;;;5069383;28;906;-62
2021/03/30 06:54:37;;;;;;;;;;;;;;;;;;5069224;28;1129;-62
2021/03/30 06:57:02;;;;;;;;;;;;;;;;;;5068288;28;819;-63
2021/03/30 06:59:27;;;;;;;;;;;;;;;;;;5068930;28;815;-63
2021/03/30 07:01:54;;;;;;;;;;;;;;;;;;5068704;28;1975;-63
2021/03/30 07:04:20;;;;;;;;;;;;;;;;;;5070473;28;827;-63
2021/03/30 07:06:49;;;;;;;;;;;;;;;;;;5069490;28;897;-65
2021/03/30 07:09:16;;;;;;;;;;;;;;;;;;5069109;28;896;-65
2021/03/30 07:11:41;;;;;;;;;;;;;;;;;;5068314;28;874;-65
2021/03/30 07:14:06;;;;;;;;;;;;;;;;;;5058853;28;1780;-64
2021/03/30 07:16:34;;;;;;;;;;;;;;;;;;5062145;28;1773;-65
2021/03/30 07:19:00;;;;;;;;;;;;;;;;;;5058662;28;2267;-63
2021/03/30 07:21:27;;;;;;;;;;;;;;;;;;5048253;28;1894;-63
2021/03/30 07:23:55;;;;;;;;;;;;;;;;;;5060405;28;1131;-64
2021/03/30 07:26:29;;;;;;;;;;;;;;;;;;5055367;28;1183;-63
2021/03/30 07:29:02;;;;;;;;;;;;;;;;;;5057112;28;1225;-63
2021/03/30 07:31:31;;;;;;;;;;;;;;;;;;5059709;28;1218;-63
2021/03/30 07:33:59;;;;;;;;;;;;;;;;;;5059060;28;1086;-63
2021/03/30 07:36:28;;;;;;;;;;;;;;;;;;5057554;28;1226;-62
2021/03/30 07:38:55;;;;;;;;;;;;;;;;;;5051508;28;1159;-63
2021/03/30 07:41:21;;;;;;;;;;;;;;;;;;5048446;28;2451;-63
2021/03/30 07:43:47;;;;;;;;;;;;;;;;;;5038961;28;1929;-63
2021/03/30 07:46:13;;;;;;;;;;;;;;;;;;5048898;28;899;-62
2021/03/30 07:48:40;;;;;;;;;;;;;;;;;;5051138;28;1087;-66
2021/03/30 07:51:09;;;;;;;;;;;;;;;;;;5062123;28;1206;-65
2021/03/30 07:53:43;;;;;;;;;;;;;;;;;;5067569;28;1011;-64
2021/03/30 07:56:13;;;;;;;;;;;;;;;;;;5066635;28;910;-63
2021/03/30 07:58:40;;;;;;;;;;;;;;;;;;5067529;28;838;-63
2021/03/30 08:01:06;;;;;;;;;;;;;;;;;;5067799;28;867;-64
2021/03/30 08:03:33;;;;;;;;;;;;;;;;;;5068011;28;2008;-63
2021/03/30 08:06:04;;;;;;;;;;;;;;;;;;5068010;28;866;-63
2021/03/30 08:08:30;;;;;;;;;;;;;;;;;;5067424;28;815;-63
2021/03/30 08:10:55;;;;;;;;;;;;;;;;;;5067377;28;873;-63
2021/03/30 08:13:24;;;;;;;;;;;;;;;;;;5068968;28;917;-63
2021/03/30 08:15:51;;;;;;;;;;;;;;;;;;5068723;28;838;-63
2021/03/30 08:18:18;;;;;;;;;;;;;;;;;;5067873;28;842;-63
2021/03/30 08:20:52;;;;;;;;;;;;;;;;;;5066765;28;886;-63
2021/03/30 08:23:18;;;;;;;;;;;;;;;;;;5061119;28;1902;-63
2021/03/30 08:25:46;;;;;;;;;;;;;;;;;;5047365;28;942;-64
2021/03/30 08:28:31;;;;;;;;;;;;;;;;;;5047539;28;830;-63
2021/03/30 08:30:56;;;;;;;;;;;;;;;;;;5046997;28;1267;-64
2021/03/30 08:33:23;;;;;;;;;;;;;;;;;;5047476;28;792;-64
2021/03/30 08:35:48;;;;;;;;;;;;;;;;;;5048055;28;894;-64
2021/03/30 08:38:43;;;;;;;;;;;;;;;;;;5047858;28;874;-64
2021/03/30 08:41:09;;;;;;;;;;;;;;;;;;5033816;28;1560;-63
2021/03/30 08:43:34;;;;;;;;;;;;;;;;;;5047337;28;1890;-64
2021/03/30 08:46:01;;;;;;;;;;;;;;;;;;5047564;28;902;-64
2021/03/30 08:48:33;;;;;;;;;;;;;;;;;;5047592;28;904;-64
2021/03/30 08:50:59;;;;;;;;;;;;;;;;;;5047267;28;839;-63
2021/03/30 08:53:29;;;;;;;;;;;;;;;;;;5054007;28;1082;-64
2021/03/30 08:55:54;;;;;;;;;;;;;;;;;;5067279;28;835;-64
2021/03/30 08:58:24;;;;;;;;;;;;;;;;;;5068239;28;898;-64
2021/03/30 09:00:49;;;;;;;;;;;;;;;;;;5068138;28;827;-64
2021/03/30 09:03:15;;;;;;;;;;;;;;;;;;5067345;28;1972;-64
2021/03/30 09:05:41;;;;;;;;;;;;;;;;;;5067261;28;907;-63
2021/03/30 09:08:08;;;;;;;;;;;;;;;;;;5067460;28;893;-63
2021/03/30 09:10:33;;;;;;;;;;;;;;;;;;5067819;28;818;-64
2021/03/30 09:13:15;;;;;;;;;;;;;;;;;;5067342;28;823;-64
2021/03/30 09:15:40;;;;;;;;;;;;;;;;;;5067295;28;815;-64
2021/03/30 09:18:06;;;;;;;;;;;;;;;;;;5067329;28;826;-63
2021/03/30 09:20:34;;;;;;;;;;;;;;;;;;5066187;28;834;-63
2021/03/30 09:23:02;;;;;;;;;;;;;;;;;;5066433;28;1960;-65
2021/03/30 09:25:42;;;;;;;;;;;;;;;;;;5066857;28;894;-64
2021/03/30 09:28:18;;;;;;;;;;;;;;;;;;5067350;28;850;-63
2021/03/30 09:30:45;;;;;;;;;;;;;;;;;;5067177;28;814;-64
2021/03/30 09:33:10;;;;;;;;;;;;;;;;;;5063319;28;1227;-64
2021/03/30 09:35:35;;;;;;;;;;;;;;;;;;5036213;28;1306;-63
2021/03/30 09:38:02;;;;;;;;;;;;;;;;;;5040817;28;1390;-64
2021/03/30 09:40:29;;;;;;;;;;;;;;;;;;5044113;28;1120;-62
2021/03/30 09:42:54;;;;;;;;;;;;;;;;;;5052457;28;1961;-66
2021/03/30 09:45:24;;;;;;;;;;;;;;;;;;5063179;28;1222;-64
2021/03/30 09:47:49;;;;;;;;;;;;;;;;;;5051474;28;1414;-64
2021/03/30 09:50:17;;;;;;;;;;;;;;;;;;5054590;28;1225;-66
2021/03/30 09:52:43;;;;;;;;;;;;;;;;;;5058373;28;1181;-69
2021/03/30 09:55:09;;;;;;;;;;;;;;;;;;5055303;28;1210;-65
2021/03/30 09:57:35;;;;;;;;;;;;;;;;;;5046327;28;1533;-70
2021/03/30 10:00:00;;;;;;;;;;;;;;;;;;5056042;28;1103;-68
2021/03/30 10:02:30;;;;;;;;;;;;;;;;;;5066502;28;1910;-69
2021/03/30 10:04:57;;;;;;;;;;;;;;;;;;5065768;28;835;-72
2021/03/30 10:07:23;;;;;;;;;;;;;;;;;;5066420;28;898;-65
2021/03/30 10:09:56;;;;;;;;;;;;;;;;;;5068117;28;870;-72
2021/03/30 10:12:33;;;;;;;;;;;;;;;;;;5067198;28;826;-64
2021/03/30 10:14:59;;;;;;;;;;;;;;;;;;5066839;28;847;-72
2021/03/30 10:17:26;;;;;;;;;;;;;;;;;;5053371;28;1133;-62
2021/03/30 10:19:55;;;;;;;;;;;;;;;;;;5046536;28;823;-64
2021/03/30 10:22:21;;;;;;;;;;;;;;;;;;5047114;28;1874;-63
2021/03/30 10:25:06;;;;;;;;;;;;;;;;;;5046614;28;965;-65
2021/03/30 10:27:34;;;;;;;;;;;;;;;;;;5054046;28;1286;-64
2021/03/30 10:29:59;;;;;;;;;;;;;;;;;;5057159;28;1047;-65
2021/03/30 10:32:25;;;;;;;;;;;;;;;;;;5057503;28;1147;-63
2021/03/30 10:34:51;;;;;;;;;;;;;;;;;;5055822;28;1202;-64
2021/03/30 10:37:16;;;;;;;;;;;;;;;;;;5060291;28;1195;-62
2021/03/30 10:39:43;;;;;;;;;;;;;;;;;;5048160;28;890;-63
2021/03/30 10:42:11;;;;;;;;;;;;;;;;;;5048948;28;1910;-63
2021/03/30 10:44:38;;;;;;;;;;;;;;;;;;5049175;28;918;-65
2021/03/30 10:47:13;;;;;;;;;;;;;;;;;;5051948;28;1186;-62
2021/03/30 10:49:39;;;;;;;;;;;;;;;;;;5058772;28;1163;-64
2021/03/30 10:52:05;;;;;;;;;;;;;;;;;;5042432;28;1137;-63
2021/03/30 10:54:30;;;;;;;;;;;;;;;;;;5040773;28;1211;-68
2021/03/30 10:56:56;;;;;;;;;;;;;;;;;;5038071;28;1307;-65
2021/03/30 10:59:21;;;;;;;;;;;;;;;;;;5051962;28;1236;-64
2021/03/30 11:01:47;;;;;;;;;;;;;;;;;;5058178;28;1949;-66
2021/03/30 11:04:12;;;;;;;;;;;;;;;;;;5059070;28;1108;-64
2021/03/30 11:06:38;;;;;;;;;;;;;;;;;;5051631;28;1151;-65
2021/03/30 11:09:04;;;;;;;;;;;;;;;;;;5048513;28;847;-65
2021/03/30 11:11:29;;;;;;;;;;;;;;;;;;5048398;28;922;-65
2021/03/30 11:13:55;;;;;;;;;;;;;;;;;;5048868;28;886;-65
2021/03/30 11:16:20;;;;;;;;;;;;;;;;;;5049113;28;815;-65
2021/03/30 11:18:45;;;;;;;;;;;;;;;;;;5047746;28;747;-66
2021/03/30 11:21:11;;;;;;;;;;;;;;;;;;5048486;28;886;-65
2021/03/30 11:23:38;;;;;;;;;;;;;;;;;;5038751;28;1963;-65
2021/03/30 11:26:04;;;;;;;;;;;;;;;;;;5041065;28;819;-65
2021/03/30 11:28:36;;;;;;;;;;;;;;;;;;5048904;28;827;-66
2021/03/30 11:31:05;;;;;;;;;;;;;;;;;;5051065;28;1105;-66
2021/03/30 11:33:34;;;;;;;;;;;;;;;;;;5049060;28;918;-64
2021/03/30 11:36:10;;;;;;;;;;;;;;;;;;5051436;28;1218;-65
2021/03/30 11:38:35;;;;;;;;;;;;;;;;;;5043583;28;1179;-64
2021/03/30 11:41:01;;;;;;;;;;;;;;;;;;5068068;28;862;-66
2021/03/30 11:43:26;;;;;;;;;;;;;;;;;;5067766;28;1954;-65
2021/03/30 11:45:51;;;;;;;;;;;;;;;;;;5068919;28;906;-65
2021/03/30 11:48:17;;;;;;;;;;;;;;;;;;5068920;28;1099;-65
2021/03/30 11:50:42;;;;;;;;;;;;;;;;;;5068560;28;878;-66
2021/03/30 11:53:08;;;;;;;;;;;;;;;;;;5060489;28;1051;-65
2021/03/30 11:55:33;;;;;;;;;;;;;;;;;;5062462;28;1237;-66
2021/03/30 11:57:58;;;;;;;;;;;;;;;;;;5059740;28;1214;-66
2021/03/30 12:00:24;;;;;;;;;;;;;;;;;;5053500;28;1139;-65
2021/03/30 12:02:49;;;;;;;;;;;;;;;;;;5049653;28;1984;-66
2021/03/30 12:05:15;;;;;;;;;;;;;;;;;;5056342;28;1217;-67
2021/03/30 12:07:40;;;;;;;;;;;;;;;;;;5037962;28;811;-67
2021/03/30 12:10:07;;;;;;;;;;;;;;;;;;5028290;28;883;-67
2021/03/30 12:12:32;;;;;;;;;;;;;;;;;;5028116;28;2067;-67
2021/03/30 12:14:57;;;;;;;;;;;;;;;;;;5028403;28;956;-66
2021/03/30 12:17:23;;;;;;;;;;;;;;;;;;5028273;28;1519;-66
2021/03/30 12:19:48;;;;;;;;;;;;;;;;;;5029432;28;854;-66
2021/03/30 12:22:14;;;;;;;;;;;;;;;;;;5028177;28;1894;-64
2021/03/30 12:24:39;;;;;;;;;;;;;;;;;;5044537;28;1226;-65
2021/03/30 12:27:09;;;;;;;;;;;;;;;;;;5047234;28;867;-66
2021/03/30 12:29:34;;;;;;;;;;;;;;;;;;5047077;28;852;-66
2021/03/30 12:32:00;;;;;;;;;;;;;;;;;;5046333;28;938;-64
2021/03/30 12:34:25;;;;;;;;;;;;;;;;;;5046465;28;874;-63
2021/03/30 12:36:51;;;;;;;;;;;;;;;;;;5048782;28;839;-65
2021/03/30 12:39:17;;;;;;;;;;;;;;;;;;5047729;28;847;-67
2021/03/30 12:41:42;;;;;;;;;;;;;;;;;;5047834;28;1890;-63
2021/03/30 12:44:07;;;;;;;;;;;;;;;;;;5047132;28;960;-65
2021/03/30 12:46:33;;;;;;;;;;;;;;;;;;5047582;28;898;-66
2021/03/30 12:48:58;;;;;;;;;;;;;;;;;;5047603;28;866;-66
2021/03/30 12:51:23;;;;;;;;;;;;;;;;;;5047975;28;906;-64
2021/03/30 12:53:49;;;;;;;;;;;;;;;;;;5057604;28;1178;-66
2021/03/30 12:56:14;;;;;;;;;;;;;;;;;;5066748;28;862;-66
2021/03/30 12:58:40;;;;;;;;;;;;;;;;;;5067850;28;795;-66
2021/03/30 13:01:05;;;;;;;;;;;;;;;;;;5067991;28;835;-66
2021/03/30 13:03:30;;;;;;;;;;;;;;;;;;5067897;28;1934;-66
2021/03/30 13:05:56;;;;;;;;;;;;;;;;;;5067733;28;902;-65
2021/03/30 13:08:21;;;;;;;;;;;;;;;;;;5068496;28;838;-66
2021/03/30 13:10:47;;;;;;;;;;;;;;;;;;5067599;28;957;-65
2021/03/30 13:13:12;;;;;;;;;;;;;;;;;;5067854;28;783;-63
2021/03/30 13:15:37;;;;;;;;;;;;;;;;;;5067746;28;882;-63
2021/03/30 13:18:03;;;;;;;;;;;;;;;;;;5066192;28;1305;-63
2021/03/30 13:20:28;;;;;;;;;;;;;;;;;;5067146;28;846;-63
2021/03/30 13:22:56;;;;;;;;;;;;;;;;;;5064231;28;1976;-63
2021/03/30 13:25:22;;;;;;;;;;;;;;;;;;5068075;28;834;-63
2021/03/30 13:27:48;;;;;;;;;;;;;;;;;;5068348;28;835;-63
2021/03/30 13:30:14;;;;;;;;;;;;;;;;;;5067333;28;921;-63
2021/03/30 13:32:39;;;;;;;;;;;;;;;;;;5067417;28;910;-63
2021/03/30 13:35:05;;;;;;;;;;;;;;;;;;5066577;28;861;-63
2021/03/30 13:37:30;;;;;;;;;;;;;;;;;;5067463;28;799;-64
2021/03/30 13:39:56;;;;;;;;;;;;;;;;;;5065417;28;1269;-63
2021/03/30 13:42:21;;;;;;;;;;;;;;;;;;5068337;28;1885;-63
2021/03/30 13:44:46;;;;;;;;;;;;;;;;;;5067461;28;964;-63
2021/03/30 13:47:12;;;;;;;;;;;;;;;;;;5067236;28;898;-62
2021/03/30 13:49:39;;;;;;;;;;;;;;;;;;5067127;28;786;-62
2021/03/30 13:52:05;;;;;;;;;;;;;;;;;;5067656;28;823;-63
2021/03/30 13:54:31;;;;;;;;;;;;;;;;;;5050350;28;1118;-63
2021/03/30 13:56:56;;;;;;;;;;;;;;;;;;5047365;28;803;-64
2021/03/30 13:59:22;;;;;;;;;;;;;;;;;;5048159;28;835;-64
2021/03/30 14:01:49;;;;;;;;;;;;;;;;;;5048236;28;1977;-62
2021/03/30 14:04:15;;;;;;;;;;;;;;;;;;5047253;28;811;-63
2021/03/30 14:06:41;;;;;;;;;;;;;;;;;;5049285;28;843;-62
2021/03/30 14:09:07;;;;;;;;;;;;;;;;;;5051324;28;887;-63
2021/03/30 14:11:35;;;;;;;;;;;;;;;;;;5050997;28;899;-63
2021/03/30 14:14:08;;;;;;;;;;;;;;;;;;5050812;28;843;-64
2021/03/30 14:16:42;;;;;;;;;;;;;;;;;;5051030;28;859;-62
2021/03/30 14:19:52;;;;;;;;;;;;;;;;;;5048871;28;855;-63
2021/03/30 14:21:58;;;;;;;;;;;;;;;;;;5047051;28;1886;-63
2021/03/30 14:24:37;;;;;;;;;;;;;;;;;;5050662;28;906;-63
2021/03/30 14:27:02;;;;;;;;;;;;;;;;;;5050432;28;835;-62
2021/03/30 14:29:28;;;;;;;;;;;;;;;;;;5050377;28;890;-63
2021/03/30 14:31:53;;;;;;;;;;;;;;;;;;5050402;28;902;-63
2021/03/30 14:34:19;;;;;;;;;;;;;;;;;;5051605;28;819;-62
2021/03/30 14:36:44;;;;;;;;;;;;;;;;;;5050208;28;811;-62
2021/03/30 14:39:12;;;;;;;;;;;;;;;;;;5050077;28;998;-63
2021/03/30 14:50:36;;;;;;;;;;;;;;;;;;5050399;28;827;-63
2021/03/30 14:52:10;;;;;;;;;;;;;;;;;;5048547;28;1278;-63
2021/03/30 14:54:39;;;;;;;;;;;;;;;;;;5065962;28;1027;-64
2021/03/30 14:57:16;;;;;;;;;;;;;;;;;;5070132;28;1074;-63
2021/03/30 15:04:42;;;;;;;;;;;;;;;;;;5069481;28;859;-63
2021/03/30 15:07:07;;;;;;;;;;;;;;;;;;5069972;28;795;-63
2021/03/30 15:09:32;;;;;;;;;;;;;;;;;;5069268;28;881;-63
2021/03/30 15:11:58;;;;;;;;;;;;;;;;;;5069093;28;818;-63
2021/03/30 15:14:23;;;;;;;;;;;;;;;;;;5069874;28;889;-62
2021/03/30 15:16:48;;;;;;;;;;;;;;;;;;5046722;28;1771;-61
2021/03/30 15:19:16;;;;;;;;;;;;;;;;;;5048065;28;1305;-61
2021/03/30 15:21:41;;;;;;;;;;;;;;;;;;5044032;28;1180;-63
2021/03/30 15:24:07;;;;;;;;;;;;;;;;;;5048786;28;1965;-62
2021/03/30 15:26:32;;;;;;;;;;;;;;;;;;5041656;28;1173;-65
2021/03/30 15:28:57;;;;;;;;;;;;;;;;;;5039915;28;1160;-63
2021/03/30 15:31:23;;;;;;;;;;;;;;;;;;5040604;28;1141;-62
2021/03/30 15:33:48;;;;;;;;;;;;;;;;;;5043888;28;1221;-65
2021/03/30 15:36:14;;;;;;;;;;;;;;;;;;5050708;28;2072;-62
2021/03/30 15:38:39;;;;;;;;;;;;;;;;;;5044358;28;1127;-65
2021/03/30 15:41:05;;;;;;;;;;;;;;;;;;5051018;28;1101;-64
2021/03/30 15:43:30;;;;;;;;;;;;;;;;;;5046646;28;1964;-63
2021/03/30 15:48:41;;;;;;;;;;;;;;;;;;5048638;28;655;-64
2021/03/30 15:51:06;;;;;;;;;;;;;;;;;;5063844;28;1095;-63
2021/03/30 15:53:32;;;;;;;;;;;;;;;;;;5060633;28;1153;-64
2021/03/30 15:55:58;;;;;;;;;;;;;;;;;;5048691;28;792;-65
2021/03/30 15:58:23;;;;;;;;;;;;;;;;;;5047969;28;859;-63
2021/03/30 16:00:48;;;;;;;;;;;;;;;;;;5048396;28;827;-65
2021/03/30 16:03:14;;;;;;;;;;;;;;;;;;5052780;28;1906;-64
2021/03/30 16:05:39;;;;;;;;;;;;;;;;;;5056185;28;1159;-62
2021/03/30 16:08:05;;;;;;;;;;;;;;;;;;5052345;28;1159;-62
2021/03/30 16:10:30;;;;;;;;;;;;;;;;;;5056112;28;1029;-62
2021/03/30 16:12:56;;;;;;;;;;;;;;;;;;5054065;28;984;-62
2021/03/30 16:15:21;;;;;;;;;;;;;;;;;;5058517;28;1045;-64
2021/03/30 16:17:47;;;;;;;;;;;;;;;;;;5062967;28;1270;-63
2021/03/30 16:20:13;;;;;;;;;;;;;;;;;;5063576;28;1056;-62
2021/03/30 16:22:41;;;;;;;;;;;;;;;;;;5049032;28;1898;-63
2021/03/30 16:25:08;;;;;;;;;;;;;;;;;;5061938;28;1079;-64
2021/03/30 16:27:33;;;;;;;;;;;;;;;;;;5067578;28;811;-63
2021/03/30 16:29:59;;;;;;;;;;;;;;;;;;5067866;28;823;-63
2021/03/30 16:32:25;;;;;;;;;;;;;;;;;;5058509;28;1163;-63
2021/03/30 16:34:50;;;;;;;;;;;;;;;;;;5067424;28;965;-63
2021/03/30 16:37:16;;;;;;;;;;;;;;;;;;5067518;28;823;-62
2021/03/30 16:39:41;;;;;;;;;;;;;;;;;;5067913;28;893;-62
2021/03/30 16:42:07;;;;;;;;;;;;;;;;;;5067358;28;1898;-63
2021/03/30 16:44:32;;;;;;;;;;;;;;;;;;5067330;28;1048;-63
2021/03/30 16:46:58;;;;;;;;;;;;;;;;;;5064671;28;1237;-64
2021/03/30 16:49:23;;;;;;;;;;;;;;;;;;5054049;28;1158;-64
2021/03/30 16:51:49;;;;;;;;;;;;;;;;;;5049825;28;1454;-63
2021/03/30 16:54:14;;;;;;;;;;;;;;;;;;5045998;28;1710;-68
2021/03/30 16:56:41;;;;;;;;;;;;;;;;;;5047671;28;866;-64
2021/03/30 16:59:09;;;;;;;;;;;;;;;;;;5048965;28;1139;-70
2021/03/30 17:01:35;;;;;;;;;;;;;;;;;;5043698;28;1397;-62
2021/03/30 17:04:01;;;;;;;;;;;;;;;;;;5052431;28;1957;-64
2021/03/30 17:06:26;;;;;;;;;;;;;;;;;;5039021;28;1234;-64
2021/03/30 17:08:52;;;;;;;;;;;;;;;;;;5027765;28;882;-65
2021/03/30 17:11:18;;;;;;;;;;;;;;;;;;5028323;28;1472;-66
2021/03/30 17:13:43;;;;;;;;;;;;;;;;;;5027222;28;879;-64
2021/03/30 17:16:09;;;;;;;;;;;;;;;;;;5027406;28;914;-63
2021/03/30 17:18:34;;;;;;;;;;;;;;;;;;5031115;28;1387;-63
2021/03/30 17:21:02;;;;;;;;;;;;;;;;;;5046554;28;784;-64
2021/03/30 17:23:28;;;;;;;;;;;;;;;;;;5047695;28;1886;-68
2021/03/30 17:25:55;;;;;;;;;;;;;;;;;;5067066;28;811;-64
2021/03/30 17:28:21;;;;;;;;;;;;;;;;;;5068360;28;913;-63
2021/03/30 17:30:46;;;;;;;;;;;;;;;;;;5060984;28;1170;-63